createdAt,value
2019-05-01T00:04:22.785Z,31.90
2019-05-01T00:09:30.068Z,44.27
2019-05-01T00:14:35.247Z,46.93
2019-05-01T00:19:40.768Z,53.27
2019-05-01T00:24:45.952Z,57.27
2019-05-01T00:29:51.238Z,49.93
2019-05-01T00:34:57.498Z,58.50
2019-05-01T00:40:02.847Z,52.73
2019-05-01T00:45:08.024Z,43.33
2019-05-01T00:50:14.269Z,43.30
2019-05-01T00:55:37.073Z,44.83
2019-05-01T01:01:01.237Z,46.17
2019-05-01T01:06:08.269Z,40.60
2019-05-01T01:11:13.635Z,47.80
2019-05-01T01:16:18.815Z,50.43
2019-05-01T01:21:24.377Z,56.47
2019-05-01T01:26:29.683Z,52.33
2019-05-01T01:31:34.832Z,52.07
2019-05-01T01:36:40.017Z,56.57
2019-05-01T01:41:45.980Z,51.63
2019-05-01T01:46:52.024Z,55.90
2019-05-01T01:51:57.315Z,68.97
2019-05-01T01:57:03.390Z,46.93
2019-05-01T02:02:31.753Z,53.20
2019-05-01T02:07:36.959Z,49.23
2019-05-01T02:12:43.034Z,47.27
2019-05-01T02:17:48.208Z,53.83
2019-05-01T02:22:53.740Z,55.50
2019-05-01T02:28:33.187Z,49.47
2019-05-01T02:33:40.128Z,50.37
2019-05-01T02:38:47.900Z,55.37
2019-05-01T02:43:56.256Z,66.47
2019-05-01T02:49:08.242Z,61.57
2019-05-01T02:54:16.232Z,49.73
2019-05-01T02:59:23.451Z,52.57
2019-05-01T03:04:28.915Z,58.85
2019-05-01T03:09:35.138Z,57.10
2019-05-01T03:14:43.990Z,68.77
2019-05-01T03:19:59.352Z,58.70
2019-05-01T03:25:05.033Z,54.23
2019-05-01T03:30:10.307Z,57.30
2019-05-01T03:35:15.589Z,59.10
2019-05-01T03:40:21.491Z,57.13
2019-05-01T03:45:26.754Z,63.37
2019-05-01T03:50:31.955Z,54.93
2019-05-01T03:55:46.513Z,59.47
2019-05-01T04:01:29.310Z,63.20
2019-05-01T04:06:35.153Z,51.43
2019-05-01T04:11:40.434Z,57.33
2019-05-01T04:16:49.361Z,60.07
2019-05-01T04:22:04.658Z,55.03
2019-05-01T04:27:12.883Z,56.67
2019-05-01T04:32:30.226Z,50.80
2019-05-01T04:37:35.913Z,50.00
2019-05-01T04:42:41.282Z,59.70
2019-05-01T04:47:46.930Z,58.27
2019-05-01T04:52:53.177Z,55.17
2019-05-01T04:57:58.765Z,54.50
2019-05-01T05:03:08.081Z,56.77
2019-05-01T05:08:13.382Z,54.30
2019-05-01T05:13:27.989Z,53.80
2019-05-01T05:18:34.343Z,54.03
2019-05-01T05:23:39.686Z,57.23
2019-05-01T05:28:45.358Z,61.73
2019-05-01T05:33:53.177Z,57.57
2019-05-01T05:39:05.483Z,54.73
2019-05-01T05:44:10.959Z,58.67
2019-05-01T05:49:16.225Z,60.30
2019-05-01T05:54:44.713Z,64.40
2019-05-01T05:59:55.986Z,57.00
2019-05-01T06:05:17.354Z,51.45
2019-05-01T06:10:31.481Z,55.10
2019-05-01T06:16:01.631Z,54.53
2019-05-01T06:21:35.945Z,56.23
2019-05-01T06:26:41.847Z,57.83
2019-05-01T06:31:47.050Z,50.27
2019-05-01T06:36:52.348Z,51.35
2019-05-01T06:41:58.622Z,56.93
2019-05-01T06:47:18.782Z,53.02
2019-05-01T06:52:29.438Z,58.68
2019-05-01T06:57:32.988Z,54.43
2019-05-01T07:02:38.252Z,47.67
2019-05-01T07:07:47.995Z,54.83
2019-05-01T07:12:52.938Z,49.55
2019-05-01T07:17:59.396Z,48.28
2019-05-01T07:23:06.316Z,47.60
2019-05-01T07:28:11.494Z,49.07
2019-05-01T07:33:17.889Z,44.50
2019-05-01T07:38:24.721Z,46.37
2019-05-01T07:43:54.964Z,40.60
2019-05-01T07:48:59.502Z,38.25
2019-05-01T07:54:08.760Z,39.10
2019-05-01T07:59:12.221Z,39.48
2019-05-01T08:04:19.728Z,34.95
2019-05-01T08:09:25.041Z,35.68
2019-05-01T08:14:30.328Z,33.75
2019-05-01T08:19:44.747Z,32.85
2019-05-01T08:24:53.930Z,35.68
2019-05-01T08:30:17.422Z,34.60
2019-05-01T08:35:24.540Z,33.48
2019-05-01T08:40:30.109Z,34.88
2019-05-01T08:45:57.424Z,33.05
2019-05-01T08:51:03.869Z,28.98
2019-05-01T08:56:09.965Z,35.00
2019-05-01T09:01:16.414Z,32.75
2019-05-01T09:06:34.313Z,28.75
2019-05-01T09:11:31.749Z,28.77
2019-05-01T09:16:37.727Z,26.73
2019-05-01T09:21:43.811Z,24.72
2019-05-01T09:27:03.656Z,24.30
2019-05-01T09:32:10.144Z,23.50
2019-05-01T09:37:17.243Z,21.90
2019-05-01T09:42:23.705Z,23.42
2019-05-01T09:47:31.119Z,20.72
2019-05-01T09:52:50.805Z,21.55
2019-05-01T09:57:56.443Z,20.10
2019-05-01T10:03:01.712Z,15.18
2019-05-01T10:08:06.988Z,16.25
2019-05-01T10:13:12.877Z,14.25
2019-05-01T10:18:18.239Z,15.20
2019-05-01T10:23:23.692Z,13.25
2019-05-01T10:28:45.213Z,12.53
2019-05-01T10:33:49.506Z,12.70
2019-05-01T10:38:54.782Z,12.55
2019-05-01T10:43:59.967Z,12.47
2019-05-01T10:49:05.326Z,11.83
2019-05-01T10:54:11.424Z,12.50
2019-05-01T10:59:16.681Z,10.58
2019-05-01T11:04:21.946Z,14.33
2019-05-01T11:09:27.271Z,12.65
2019-05-01T11:14:32.533Z,16.95
2019-05-01T11:19:38.168Z,13.25
2019-05-01T11:24:43.428Z,11.60
2019-05-01T11:29:48.695Z,12.95
2019-05-01T11:35:03.581Z,12.10
2019-05-01T11:40:13.503Z,12.65
2019-05-01T11:45:20.023Z,19.35
2019-05-01T11:50:25.309Z,13.93
2019-05-01T11:55:33.215Z,13.15
2019-05-01T12:00:38.769Z,13.10
2019-05-01T12:05:45.257Z,12.45
2019-05-01T12:10:50.647Z,11.73
2019-05-01T12:16:03.083Z,15.15
2019-05-01T12:21:08.764Z,14.20
2019-05-01T12:26:14.312Z,16.70
2019-05-01T12:31:19.590Z,16.57
2019-05-01T12:36:35.660Z,16.37
2019-05-01T12:41:40.177Z,16.95
2019-05-01T12:46:51.302Z,16.23
2019-05-01T12:52:09.888Z,18.17
2019-05-01T12:57:06.726Z,18.55
2019-05-01T13:02:12.012Z,18.85
2019-05-01T13:07:17.497Z,19.07
2019-05-01T13:12:23.128Z,16.57
2019-05-01T13:17:28.402Z,16.97
2019-05-01T13:22:33.663Z,17.67
2019-05-01T13:27:46.936Z,18.40
2019-05-01T13:32:53.620Z,20.20
2019-05-01T13:37:58.876Z,13.65
2019-05-01T13:43:04.478Z,17.73
2019-05-01T13:48:10.179Z,19.12
2019-05-01T13:53:16.356Z,16.12
2019-05-01T13:58:22.035Z,17.82
2019-05-01T14:03:28.370Z,15.10
2019-05-01T14:08:33.631Z,14.38
2019-05-01T14:13:39.017Z,15.50
2019-05-01T14:18:44.328Z,12.37
2019-05-01T14:24:12.396Z,11.97
2019-05-01T14:29:17.994Z,13.70
2019-05-01T14:34:23.283Z,12.25
2019-05-01T14:39:33.560Z,12.10
2019-05-01T14:44:39.333Z,13.68
2019-05-01T14:49:44.966Z,12.13
2019-05-01T14:54:50.229Z,12.00
2019-05-01T14:59:55.737Z,10.90
2019-05-01T15:05:01.000Z,10.75
2019-05-01T15:10:08.557Z,13.00
2019-05-01T15:15:45.344Z,11.05
2019-05-01T15:20:50.605Z,12.28
2019-05-01T15:25:56.269Z,14.00
2019-05-01T15:31:02.655Z,12.65
2019-05-01T15:36:08.028Z,12.85
2019-05-01T15:41:31.563Z,10.58
2019-05-01T15:46:38.483Z,13.28
2019-05-01T15:51:43.969Z,12.90
2019-05-01T15:56:49.252Z,15.83
2019-05-01T16:01:54.541Z,14.90
2019-05-01T16:07:00.107Z,15.88
2019-05-01T16:12:15.799Z,16.30
2019-05-01T16:17:21.344Z,17.07
2019-05-01T16:22:26.670Z,18.23
2019-05-01T16:27:33.108Z,15.43
2019-05-01T16:32:38.401Z,15.85
2019-05-01T16:37:44.479Z,18.12
2019-05-01T16:42:49.991Z,16.82
2019-05-01T16:47:55.100Z,16.10
2019-05-01T16:53:00.719Z,20.25
2019-05-01T16:58:08.737Z,17.40
2019-05-01T17:03:24.615Z,17.45
2019-05-01T17:14:13.747Z,15.90
2019-05-01T17:19:19.003Z,17.50
2019-05-01T17:24:24.929Z,16.87
2019-05-01T17:29:30.207Z,16.87
2019-05-01T17:34:35.480Z,17.57
2019-05-01T17:39:41.079Z,14.78
2019-05-01T17:44:48.347Z,16.05
2019-05-01T17:49:53.692Z,17.17
2019-05-01T17:55:01.326Z,16.07
2019-05-01T18:00:22.893Z,17.23
2019-05-01T18:05:56.173Z,17.42
2019-05-01T18:11:01.561Z,16.82
2019-05-01T18:16:07.102Z,15.72
2019-05-01T18:21:13.427Z,16.73
2019-05-01T18:26:29.103Z,19.45
2019-05-01T18:31:38.426Z,15.88
2019-05-01T18:36:48.938Z,16.12
2019-05-01T18:41:57.469Z,17.52
2019-05-01T18:47:02.735Z,17.95
2019-05-01T18:52:09.225Z,19.15
2019-05-01T18:57:14.930Z,15.53
2019-05-01T19:02:25.064Z,17.57
2019-05-01T19:07:28.347Z,21.02
2019-05-01T19:12:34.064Z,21.40
2019-05-01T19:17:40.454Z,16.40
2019-05-01T19:22:45.794Z,17.40
2019-05-01T19:27:51.736Z,15.38
2019-05-01T19:32:57.050Z,16.60
2019-05-01T19:38:02.443Z,16.00
2019-05-01T19:43:08.091Z,20.90
2019-05-01T19:48:13.842Z,18.17
2019-05-01T19:53:19.094Z,20.08
2019-05-01T19:58:24.429Z,17.80
2019-05-01T20:03:30.526Z,15.72
2019-05-01T20:08:37.046Z,17.50
2019-05-01T20:13:42.401Z,18.25
2019-05-01T20:18:47.658Z,20.60
2019-05-01T20:23:53.288Z,18.25
2019-05-01T20:29:00.427Z,18.42
2019-05-01T20:34:05.838Z,20.12
2019-05-01T20:39:11.092Z,20.35
2019-05-01T20:44:22.958Z,18.92
2019-05-01T20:49:23.891Z,19.45
2019-05-01T20:54:29.566Z,18.75
2019-05-01T20:59:39.150Z,19.12
2019-05-01T21:05:01.376Z,20.08
2019-05-01T21:10:08.519Z,24.47
2019-05-01T21:15:13.922Z,22.60
2019-05-01T21:20:19.195Z,20.02
2019-05-01T21:25:24.472Z,20.05
2019-05-01T21:30:29.875Z,20.45
2019-05-01T21:35:35.281Z,21.87
2019-05-01T21:40:41.233Z,24.30
2019-05-01T21:45:47.503Z,22.58
2019-05-01T21:50:53.725Z,22.32
2019-05-01T21:56:02.167Z,23.83
2019-05-01T22:01:07.962Z,25.30
2019-05-01T22:06:15.266Z,20.62
2019-05-01T22:11:20.320Z,19.70
2019-05-01T22:16:27.227Z,20.40
2019-05-01T22:21:57.967Z,21.97
2019-05-01T22:27:10.219Z,21.15
2019-05-01T22:32:34.152Z,23.45
2019-05-01T22:37:40.453Z,27.45
2019-05-01T22:42:45.706Z,23.12
2019-05-01T22:47:52.231Z,23.25
2019-05-01T22:52:57.855Z,23.30
2019-05-01T22:58:03.100Z,21.27
2019-05-01T23:03:11.282Z,24.72
2019-05-01T23:08:16.546Z,25.95
2019-05-01T23:13:22.667Z,23.47
2019-05-01T23:18:28.328Z,24.72
2019-05-01T23:23:35.555Z,23.95
2019-05-01T23:28:41.553Z,27.15
2019-05-01T23:33:50.565Z,24.80
2019-05-01T23:38:53.777Z,29.63
2019-05-01T23:44:03.456Z,25.65
2019-05-01T23:49:06.671Z,32.25
2019-05-01T23:54:11.851Z,30.00
2019-05-01T23:59:17.027Z,33.17
